Time;durP1;ratioP1;P1;durP2;ratioP2;P2;SDS_P1;SDS_P2;PMS_P1;PMS_P2;Temp;Humidity;BMP_temperature;BMP_pressure;BME280_temperature;BME280_humidity;BME280_pressure;Samples;Min_cycle;Max_cycle;Signal;HPM_P1;HPM_P2
2020/12/09 00:01:41;;;;;;;1.55;1.08;;;20.50;37.70;;;;;;5056687;28;20056;-74
2020/12/09 00:04:07;;;;;;;0.32;0.32;;;20.50;37.70;;;;;;5051450;28;20040;-73
2020/12/09 00:06:37;;;;;;;0.30;0.28;;;20.50;37.80;;;;;;5053131;28;20029;-73
2020/12/09 00:09:05;;;;;;;0.25;0.25;;;20.50;37.80;;;;;;5052604;28;20516;-73
2020/12/09 00:11:31;;;;;;;1.63;0.90;;;20.50;37.80;;;;;;5059739;28;20487;-73
2020/12/09 00:13:57;;;;;;;1.90;0.75;;;20.40;37.80;;;;;;5064982;28;20491;-75
2020/12/09 00:16:23;;;;;;;0.90;0.63;;;20.40;37.80;;;;;;5037158;28;20085;-74
2020/12/09 00:18:48;;;;;;;1.42;1.00;;;20.40;37.80;;;;;;5061359;28;20443;-73
2020/12/09 00:21:30;;;;;;;0.30;0.20;;;20.40;37.90;;;;;;5046058;28;20045;-73
2020/12/09 00:23:55;;;;;;;1.13;0.90;;;20.40;37.80;;;;;;5021592;28;20463;-74
2020/12/09 00:26:22;;;;;;;0.68;0.63;;;20.40;37.80;;;;;;5051979;28;20029;-74
2020/12/09 00:28:47;;;;;;;2.65;0.73;;;20.30;37.80;;;;;;5034774;28;20098;-75
2020/12/09 00:31:16;;;;;;;0.40;0.40;;;20.30;37.80;;;;;;5025356;28;20040;-75
2020/12/09 00:33:42;;;;;;;0.68;0.52;;;20.30;37.80;;;;;;5037278;28;20043;-75
2020/12/09 00:36:08;;;;;;;0.20;0.20;;;20.30;37.90;;;;;;5047578;28;20033;-75
2020/12/09 00:38:33;;;;;;;1.00;0.75;;;20.30;37.80;;;;;;5068836;28;20047;-74
2020/12/09 00:40:59;;;;;;;1.70;0.47;;;20.30;37.80;;;;;;5044467;28;20044;-72
2020/12/09 00:43:25;;;;;;;0.47;0.47;;;20.30;37.80;;;;;;5043539;28;20412;-75
2020/12/09 00:45:50;;;;;;;0.68;0.65;;;20.30;37.80;;;;;;5033528;28;20037;-74
2020/12/09 00:48:16;;;;;;;0.25;0.25;;;20.30;37.70;;;;;;5052468;28;20484;-75
2020/12/09 00:50:44;;;;;;;0.30;0.30;;;20.20;37.70;;;;;;5057200;28;20037;-74
2020/12/09 00:53:12;;;;;;;0.10;0.10;;;20.30;37.70;;;;;;5038877;28;20037;-75
2020/12/09 00:55:38;;;;;;;2.25;0.95;;;20.20;37.80;;;;;;5037647;28;20064;-74
2020/12/09 00:58:12;;;;;;;0.57;0.57;;;20.20;37.70;;;;;;5059404;28;20059;-74
2020/12/09 01:00:38;;;;;;;0.30;0.30;;;20.20;38.30;;;;;;5037947;28;20028;-75
2020/12/09 01:03:28;;;;;;;0.28;0.28;;;20.20;37.70;;;;;;5040853;28;20486;-75
2020/12/09 01:05:54;;;;;;;0.65;0.32;;;20.20;37.60;;;;;;5049504;28;20032;-74
2020/12/09 01:08:19;;;;;;;0.30;0.30;;;20.20;37.70;;;;;;5055272;28;20036;-74
2020/12/09 01:10:45;;;;;;;0.52;0.30;;;20.20;37.70;;;;;;5055753;28;20017;-74
2020/12/09 01:13:10;;;;;;;2.00;1.15;;;20.20;37.70;;;;;;5041135;28;20033;-75
2020/12/09 01:15:36;;;;;;;0.70;0.40;;;20.20;37.70;;;;;;5037759;28;20053;-75
2020/12/09 01:18:01;;;;;;;0.20;0.20;;;20.10;37.70;;;;;;5052023;28;20051;-74
2020/12/09 01:20:27;;;;;;;1.42;0.88;;;20.10;37.70;;;;;;5067282;28;20068;-74
2020/12/09 01:22:53;;;;;;;0.60;0.60;;;20.10;37.70;;;;;;5082120;28;20063;-74
2020/12/09 01:25:18;;;;;;;0.22;0.22;;;20.10;37.70;;;;;;5040970;28;20043;-74
2020/12/09 01:27:44;;;;;;;0.77;0.77;;;20.10;37.70;;;;;;5038357;28;20116;-74
2020/12/09 01:30:09;;;;;;;1.02;0.47;;;20.10;37.70;;;;;;5042313;28;20086;-75
2020/12/09 01:32:35;;;;;;;0.68;0.32;;;20.10;37.70;;;;;;5070794;28;20048;-74
2020/12/09 01:35:00;;;;;;;2.97;0.63;;;20.10;37.70;;;;;;5036858;28;20389;-74
2020/12/09 01:37:26;;;;;;;0.70;0.60;;;20.00;37.70;;;;;;5037838;28;20048;-75
2020/12/09 01:39:51;;;;;;;5.10;1.95;;;20.00;37.80;;;;;;5054663;28;20025;-74
2020/12/09 01:42:17;;;;;;;0.10;0.10;;;20.00;37.70;;;;;;5055015;28;20036;-74
2020/12/09 01:44:43;;;;;;;1.65;0.85;;;20.00;37.60;;;;;;5054931;28;20497;-74
2020/12/09 01:47:08;;;;;;;0.45;0.45;;;20.00;37.70;;;;;;5054589;28;20509;-74
2020/12/09 01:49:34;;;;;;;0.73;0.28;;;20.00;38.20;;;;;;5068754;28;20100;-74
2020/12/09 01:52:03;;;;;;;1.38;0.30;;;19.90;37.50;;;;;;5065473;28;20040;-76
2020/12/09 01:54:32;;;;;;;0.88;0.60;;;19.90;37.60;;;;;;5037376;28;20033;-76
2020/12/09 01:57:08;;;;;;;1.20;0.90;;;19.90;37.70;;;;;;5031998;28;20131;-77
2020/12/09 01:59:35;;;;;;;0.00;0.00;;;19.90;37.80;;;;;;5021123;28;20029;-76
2020/12/09 02:02:00;;;;;;;0.20;0.20;;;19.90;37.80;;;;;;5052545;28;20037;-76
2020/12/09 02:04:26;;;;;;;1.55;1.45;;;19.90;37.80;;;;;;5052686;28;20028;-76
2020/12/09 02:07:14;;;;;;;0.70;0.45;;;19.90;37.90;;;;;;5037230;28;20036;-76
2020/12/09 02:09:39;;;;;;;0.85;0.75;;;19.80;37.80;;;;;;5053956;28;20021;-76
2020/12/09 02:12:05;;;;;;;0.68;0.55;;;19.80;37.80;;;;;;5055126;28;20473;-76
2020/12/09 02:14:31;;;;;;;1.30;0.55;;;19.80;37.80;;;;;;5048339;28;20029;-76
2020/12/09 02:16:58;;;;;;;2.55;0.57;;;19.80;37.80;;;;;;5055851;28;20025;-76
2020/12/09 02:19:24;;;;;;;6.55;2.63;;;19.80;37.70;;;;;;5038808;28;20127;-76
2020/12/09 02:22:08;;;;;;;0.10;0.10;;;19.80;37.70;;;;;;5043084;28;20498;-76
2020/12/09 02:24:34;;;;;;;0.05;0.03;;;19.80;37.60;;;;;;5018521;28;20042;-76
2020/12/09 02:27:00;;;;;;;0.68;0.55;;;19.80;37.70;;;;;;5031927;28;20084;-76
2020/12/09 02:29:25;;;;;;;0.00;0.00;;;19.80;37.70;;;;;;5021088;28;20028;-76
2020/12/09 02:31:51;;;;;;;0.10;0.10;;;19.80;37.70;;;;;;5013859;28;20080;-75
2020/12/09 02:34:16;;;;;;;0.10;0.10;;;19.80;37.70;;;;;;5013548;28;20300;-76
2020/12/09 02:36:42;;;;;;;0.50;0.30;;;19.80;37.80;;;;;;5013954;28;20040;-76
2020/12/09 02:39:07;;;;;;;1.45;0.90;;;19.80;37.80;;;;;;5014131;28;20409;-76
2020/12/09 02:41:33;;;;;;;0.10;0.10;;;19.80;37.80;;;;;;5023955;28;20026;-77
2020/12/09 02:43:59;;;;;;;1.05;0.95;;;19.80;37.80;;;;;;5033501;28;20095;-76
2020/12/09 02:46:24;;;;;;;2.47;0.77;;;19.80;37.80;;;;;;5039967;28;20017;-76
2020/12/09 02:48:50;;;;;;;0.40;0.40;;;19.80;37.70;;;;;;5041651;28;20026;-76
2020/12/09 02:51:15;;;;;;;0.65;0.50;;;19.80;37.80;;;;;;5015475;28;20066;-77
2020/12/09 02:53:41;;;;;;;0.17;0.17;;;19.80;37.70;;;;;;5016986;28;20061;-77
2020/12/09 02:56:06;;;;;;;0.05;0.03;;;19.80;37.70;;;;;;5034346;28;20416;-76
2020/12/09 02:58:32;;;;;;;1.13;0.60;;;19.80;37.70;;;;;;5049066;28;20033;-77
2020/12/09 03:00:58;;;;;;;0.17;0.15;;;19.70;37.70;;;;;;5017154;28;20509;-75
2020/12/09 03:03:23;;;;;;;6.97;1.55;;;19.80;37.70;;;;;;5046421;28;20025;-75
2020/12/09 03:05:49;;;;;;;0.10;0.10;;;19.80;37.80;;;;;;5023161;28;20119;-75
2020/12/09 03:08:15;;;;;;;0.45;0.45;;;19.70;37.60;;;;;;5047584;28;20435;-75
2020/12/09 03:10:40;;;;;;;0.28;0.28;;;19.70;37.60;;;;;;5027666;28;20026;-75
2020/12/09 03:13:06;;;;;;;1.85;0.73;;;19.70;37.60;;;;;;5026474;28;20389;-77
2020/12/09 03:15:31;;;;;;;2.60;0.60;;;19.70;37.70;;;;;;5048154;28;20079;-78
2020/12/09 03:17:57;;;;;;;1.73;0.80;;;19.70;37.60;;;;;;5035784;28;20040;-77
2020/12/09 03:20:23;;;;;;;1.30;0.85;;;19.70;37.70;;;;;;5014270;28;20021;-77
2020/12/09 03:22:48;;;;;;;0.20;0.20;;;19.60;37.60;;;;;;5034918;28;20394;-77
2020/12/09 03:25:14;;;;;;;0.22;0.22;;;19.60;37.70;;;;;;5035602;28;20021;-77
2020/12/09 03:27:39;;;;;;;0.40;0.40;;;19.60;38.40;;;;;;5040947;28;20037;-77
2020/12/09 03:30:05;;;;;;;0.68;0.68;;;19.60;37.70;;;;;;5019101;28;20044;-77
2020/12/09 03:32:31;;;;;;;1.25;1.15;;;19.60;37.80;;;;;;5033125;28;20152;-77
2020/12/09 03:34:56;;;;;;;1.55;1.17;;;19.60;37.70;;;;;;5004959;28;20408;-77
2020/12/09 03:37:22;;;;;;;1.13;0.85;;;19.60;38.50;;;;;;5020223;28;20040;-77
2020/12/09 03:39:47;;;;;;;0.43;0.43;;;19.60;37.80;;;;;;5026943;28;20029;-76
2020/12/09 03:42:13;;;;;;;0.00;0.00;;;19.60;38.00;;;;;;5049913;28;20028;-75
2020/12/09 03:44:38;;;;;;;1.65;0.43;;;19.60;37.90;;;;;;5032393;28;20025;-74
2020/12/09 03:47:04;;;;;;;1.00;1.00;;;19.60;38.00;;;;;;5017861;28;20060;-74
2020/12/09 03:49:29;;;;;;;1.25;0.90;;;19.60;38.00;;;;;;5052029;28;20503;-74
2020/12/09 03:52:01;;;;;;;0.65;0.63;;;19.60;37.90;;;;;;5027200;28;20509;-74
2020/12/09 03:54:36;;;;;;;0.55;0.35;;;19.50;37.80;;;;;;5014556;28;20048;-74
2020/12/09 03:57:01;;;;;;;0.32;0.32;;;19.50;37.80;;;;;;5032420;28;20056;-73
2020/12/09 04:02:49;;;;;;;0.70;0.70;;;19.50;38.00;;;;;;5043891;28;20129;-75
2020/12/09 04:05:14;;;;;;;0.70;0.70;;;19.50;38.00;;;;;;5035266;28;20112;-76
2020/12/09 04:07:40;;;;;;;4.18;0.95;;;19.50;38.00;;;;;;5041975;28;20025;-76
2020/12/09 04:10:05;;;;;;;1.27;0.47;;;19.50;38.00;;;;;;5024210;28;20513;-75
2020/12/09 04:12:31;;;;;;;0.70;0.70;;;19.50;38.00;;;;;;5016259;28;20096;-75
2020/12/09 04:14:57;;;;;;;0.05;0.05;;;19.50;37.90;;;;;;5036356;28;20083;-76
2020/12/09 04:17:22;;;;;;;0.85;0.70;;;19.50;38.00;;;;;;5029873;28;20032;-76
2020/12/09 04:19:48;;;;;;;0.32;0.32;;;19.50;37.90;;;;;;5039233;28;20024;-76
2020/12/09 04:22:14;;;;;;;0.47;0.43;;;19.50;37.90;;;;;;5020560;28;20080;-76
2020/12/09 04:24:40;;;;;;;0.25;0.25;;;19.50;37.80;;;;;;5015167;28;20033;-76
2020/12/09 04:27:05;;;;;;;1.30;1.20;;;19.50;37.80;;;;;;5014475;28;20401;-76
2020/12/09 04:29:31;;;;;;;0.90;0.65;;;19.50;37.80;;;;;;5031793;28;20097;-77
2020/12/09 04:31:56;;;;;;;0.13;0.13;;;19.40;37.80;;;;;;5023379;28;20042;-77
2020/12/09 04:34:22;;;;;;;0.43;0.43;;;19.40;37.80;;;;;;5020921;28;20042;-77
2020/12/09 04:36:48;;;;;;;0.40;0.40;;;19.40;37.90;;;;;;5038546;28;20129;-76
2020/12/09 04:39:14;;;;;;;0.47;0.47;;;19.40;37.90;;;;;;5041892;28;20075;-76
2020/12/09 04:41:39;;;;;;;0.75;0.30;;;19.40;37.90;;;;;;5018354;28;20096;-76
2020/12/09 04:44:05;;;;;;;0.20;0.20;;;19.40;37.90;;;;;;5002042;28;20037;-76
2020/12/09 04:46:30;;;;;;;0.30;0.30;;;19.40;37.90;;;;;;5035779;28;20088;-75
2020/12/09 04:49:13;;;;;;;2.05;0.60;;;19.40;38.00;;;;;;5034327;28;20087;-77
2020/12/09 04:52:10;;;;;;;8.57;0.70;;;19.40;38.00;;;;;;5018330;28;20026;-76
2020/12/09 04:54:37;;;;;;;0.30;0.30;;;19.40;38.00;;;;;;5020560;28;20031;-76
2020/12/09 04:57:18;;;;;;;6.72;0.28;;;19.40;38.00;;;;;;5018277;28;20029;-75
2020/12/09 04:59:44;;;;;;;0.05;0.05;;;19.40;38.00;;;;;;5018920;28;20060;-75
2020/12/09 05:02:10;;;;;;;0.57;0.40;;;19.40;38.00;;;;;;5020417;28;20098;-76
2020/12/09 05:04:36;;;;;;;0.98;0.55;;;19.40;38.00;;;;;;5035004;28;20434;-74
2020/12/09 05:07:06;;;;;;;0.10;0.10;;;19.30;38.10;;;;;;5025167;28;20101;-75
2020/12/09 05:10:01;;;;;;;0.85;0.45;;;19.40;38.10;;;;;;5017872;28;20037;-74
2020/12/09 05:12:26;;;;;;;0.13;0.13;;;19.40;38.10;;;;;;4940736;28;20039;-74
2020/12/09 05:14:52;;;;;;;0.30;0.30;;;19.50;38.20;;;;;;4958101;28;20499;-76
2020/12/09 05:17:18;;;;;;;0.00;0.00;;;19.50;38.00;;;;;;4927469;28;20047;-76
2020/12/09 05:19:45;;;;;;;0.30;0.25;;;19.60;38.00;;;;;;4956681;28;20035;-75
2020/12/09 05:22:15;;;;;;;0.57;0.57;;;19.60;37.80;;;;;;4942040;28;20067;-76
2020/12/09 05:24:40;;;;;;;0.08;0.08;;;19.70;37.80;;;;;;4972589;28;20125;-76
2020/12/09 05:27:12;;;;;;;0.20;0.20;;;19.80;37.70;;;;;;4954388;28;20110;-76
2020/12/09 05:29:48;;;;;;;0.60;0.57;;;19.90;37.50;;;;;;4971013;28;20126;-75
2020/12/09 05:32:14;;;;;;;0.90;0.52;;;20.00;37.40;;;;;;4949550;28;20519;-75
2020/12/09 05:34:39;;;;;;;1.02;0.50;;;20.10;37.20;;;;;;4957357;28;20034;-77
2020/12/09 05:37:26;;;;;;;0.80;0.80;;;20.20;37.10;;;;;;4941618;28;20058;-76
2020/12/09 05:39:53;;;;;;;0.30;0.25;;;20.30;36.90;;;;;;4966232;28;20138;-76
2020/12/09 05:42:20;;;;;;;0.45;0.45;;;20.30;36.80;;;;;;4956445;28;20073;-75
2020/12/09 05:44:46;;;;;;;0.35;0.32;;;20.30;36.70;;;;;;4958088;28;20077;-75
2020/12/09 05:47:11;;;;;;;0.17;0.17;;;20.40;37.30;;;;;;4957210;28;20035;-74
2020/12/09 05:49:39;;;;;;;0.65;0.35;;;20.40;36.70;;;;;;5010585;28;20524;-75
2020/12/09 05:52:11;;;;;;;0.30;0.30;;;20.40;36.60;;;;;;5020248;28;20032;-74
2020/12/09 05:54:39;;;;;;;0.15;0.00;;;20.50;36.50;;;;;;5050730;28;20525;-75
2020/12/09 05:57:06;;;;;;;0.30;0.10;;;20.50;36.50;;;;;;5019446;28;20080;-75
2020/12/09 05:59:36;;;;;;;0.10;0.10;;;20.50;36.50;;;;;;5014820;28;20541;-75
2020/12/09 06:02:12;;;;;;;0.40;0.40;;;20.60;36.50;;;;;;5035209;28;20040;-75
2020/12/09 06:04:51;;;;;;;;;;;20.50;36.50;;;;;;5053234;28;20033;-75
2020/12/09 06:07:18;;;;;;;0.25;0.25;;;20.60;36.50;;;;;;5053117;28;19912;-75
2020/12/09 06:10:17;;;;;;;0.17;0.17;;;20.60;36.50;;;;;;5034024;28;20124;-76
2020/12/09 06:16:05;;;;;;;0.25;0.25;;;20.60;36.40;;;;;;5050609;28;20032;-76
2020/12/09 06:18:31;;;;;;;0.40;0.38;;;20.60;36.50;;;;;;5047961;28;20024;-76
2020/12/09 06:20:58;;;;;;;10.88;0.47;;;20.60;36.50;;;;;;5013594;28;20051;-75
2020/12/09 06:23:26;;;;;;;0.20;0.20;;;20.60;36.40;;;;;;5028336;28;20068;-75
2020/12/09 06:25:51;;;;;;;1.75;0.60;;;20.60;36.40;;;;;;5043706;28;20032;-75
2020/12/09 06:28:18;;;;;;;1.00;0.60;;;20.60;36.50;;;;;;5048342;28;20032;-75
2020/12/09 06:30:44;;;;;;;1.23;1.13;;;20.60;36.40;;;;;;5030591;28;20436;-76
2020/12/09 06:33:09;;;;;;;0.65;0.50;;;20.60;36.50;;;;;;5049665;28;20025;-75
2020/12/09 06:35:36;;;;;;;0.10;0.10;;;20.60;36.50;;;;;;5051947;28;20078;-76
2020/12/09 06:38:07;;;;;;;0.00;0.00;;;20.60;36.50;;;;;;5053023;28;20029;-75
2020/12/09 06:40:34;;;;;;;0.20;0.20;;;20.70;36.50;;;;;;5046784;28;20021;-76
2020/12/09 06:43:07;;;;;;;0.52;0.20;;;20.70;36.50;;;;;;5051644;28;20045;-76
2020/12/09 06:45:43;;;;;;;0.10;0.10;;;20.60;36.50;;;;;;5049066;28;20056;-74
2020/12/09 06:48:09;;;;;;;0.43;0.43;;;20.60;36.50;;;;;;5050563;28;20013;-76
2020/12/09 06:50:34;;;;;;;1.20;0.55;;;20.70;36.50;;;;;;5049312;28;20481;-76
2020/12/09 06:53:13;;;;;;;0.13;0.03;;;20.60;37.10;;;;;;5044451;28;20063;-76
2020/12/09 06:55:39;;;;;;;0.15;0.15;;;20.60;36.50;;;;;;5030341;28;20039;-76
2020/12/09 06:58:24;;;;;;;0.85;0.55;;;20.60;36.50;;;;;;5053094;28;20040;-75
2020/12/09 07:01:09;;;;;;;0.20;0.20;;;20.60;36.50;;;;;;5051573;28;20059;-77
2020/12/09 07:03:38;;;;;;;0.70;0.47;;;20.70;36.60;;;;;;5056492;28;20487;-76
2020/12/09 07:06:15;;;;;;;0.45;0.30;;;20.70;36.60;;;;;;5037996;28;20112;-76
2020/12/09 07:08:48;;;;;;;0.20;0.20;;;20.70;36.60;;;;;;5067928;28;20036;-76
2020/12/09 07:11:14;;;;;;;0.10;0.10;;;20.70;36.60;;;;;;5049870;28;20474;-75
2020/12/09 07:13:39;;;;;;;0.17;0.10;;;20.70;36.60;;;;;;5072821;28;20099;-75
2020/12/09 07:16:05;;;;;;;3.60;0.38;;;20.70;36.60;;;;;;5048253;28;20032;-75
2020/12/09 07:18:32;;;;;;;0.10;0.10;;;20.70;36.70;;;;;;5037617;28;20025;-76
2020/12/09 07:20:58;;;;;;;0.50;0.50;;;20.70;36.60;;;;;;5073490;28;20032;-76
2020/12/09 07:23:24;;;;;;;1.80;0.32;;;20.70;36.70;;;;;;5036952;28;20048;-76
2020/12/09 07:25:49;;;;;;;0.35;0.35;;;20.70;36.70;;;;;;5034501;28;20056;-76
2020/12/09 07:28:15;;;;;;;0.75;0.63;;;20.70;36.70;;;;;;5033026;28;20029;-74
2020/12/09 07:30:50;;;;;;;0.00;0.00;;;20.70;36.60;;;;;;5022308;28;20112;-75
2020/12/09 07:33:16;;;;;;;0.20;0.20;;;20.70;36.70;;;;;;5041667;28;20101;-75
2020/12/09 07:35:43;;;;;;;0.57;0.57;;;20.70;36.70;;;;;;5037211;28;20033;-77
2020/12/09 07:38:08;;;;;;;0.38;0.38;;;20.70;36.60;;;;;;5032090;28;20038;-77
2020/12/09 07:40:35;;;;;;;0.10;0.10;;;20.70;37.20;;;;;;5020682;28;20094;-77
2020/12/09 07:43:09;;;;;;;1.92;0.40;;;20.80;36.60;;;;;;5035037;28;20025;-77
2020/12/09 07:45:35;;;;;;;0.25;0.13;;;20.70;36.60;;;;;;5028316;28;20041;-77
2020/12/09 07:48:05;;;;;;;0.30;0.25;;;20.70;36.60;;;;;;5036369;28;20025;-77
2020/12/09 07:50:31;;;;;;;0.20;0.20;;;20.70;36.60;;;;;;5044085;28;20385;-77
2020/12/09 07:52:56;;;;;;;0.55;0.55;;;20.70;36.60;;;;;;5049306;28;20025;-77
2020/12/09 07:55:22;;;;;;;0.20;0.20;;;20.70;36.60;;;;;;5065387;28;20409;-77
2020/12/09 07:57:47;;;;;;;0.20;0.20;;;20.70;36.60;;;;;;5038731;28;20033;-77
2020/12/09 08:00:15;;;;;;;0.17;0.17;;;20.70;36.60;;;;;;5039834;28;20444;-76
2020/12/09 08:02:45;;;;;;;0.17;0.17;;;20.70;37.20;;;;;;5051152;28;20430;-75
2020/12/09 08:05:17;;;;;;;0.00;0.00;;;20.70;36.50;;;;;;5056689;28;20025;-75
2020/12/09 08:07:59;;;;;;;0.40;0.40;;;20.70;36.40;;;;;;5059742;28;20025;-75
2020/12/09 08:10:33;;;;;;;0.00;0.00;;;20.70;36.50;;;;;;5044677;28;20489;-77
2020/12/09 08:12:59;;;;;;;0.25;0.25;;;20.70;36.60;;;;;;5058500;28;20025;-76
2020/12/09 08:15:25;;;;;;;0.08;0.08;;;20.70;36.60;;;;;;5055187;28;20108;-73
2020/12/09 08:17:50;;;;;;;1.02;0.45;;;20.70;36.60;;;;;;5051512;28;20061;-74
2020/12/09 08:20:19;;;;;;;0.28;0.28;;;20.60;36.50;;;;;;5053835;28;20374;-74
2020/12/09 08:23:00;;;;;;;0.20;0.20;;;20.60;36.60;;;;;;5047385;28;20166;-73
2020/12/09 08:25:27;;;;;;;0.15;0.15;;;20.60;36.50;;;;;;5023889;28;20033;-76
2020/12/09 08:27:53;;;;;;;0.45;0.22;;;20.60;36.50;;;;;;5026609;28;20421;-76
2020/12/09 08:30:23;;;;;;;2.45;1.38;;;20.60;36.50;;;;;;5056718;28;20030;-77
2020/12/09 08:33:12;;;;;;;2.22;1.27;;;20.60;36.60;;;;;;5031923;28;20028;-77
2020/12/09 08:35:51;;;;;;;1.20;1.02;;;20.60;36.60;;;;;;5047966;28;20080;-77
2020/12/09 08:38:23;;;;;;;16.15;10.25;;;20.60;36.60;;;;;;5038654;28;20206;-76
2020/12/09 08:40:53;;;;;;;1.58;1.15;;;20.60;36.60;;;;;;5045221;28;20101;-75
2020/12/09 08:43:19;;;;;;;2.38;1.27;;;20.60;36.70;;;;;;5025425;28;20021;-75
2020/12/09 08:45:45;;;;;;;7.65;1.58;;;20.60;36.70;;;;;;5005245;28;20497;-73
2020/12/09 08:48:11;;;;;;;3.55;1.08;;;20.50;36.70;;;;;;5054203;28;20053;-75
2020/12/09 08:50:36;;;;;;;2.78;1.60;;;20.50;36.80;;;;;;5026637;28;20067;-75
2020/12/09 08:53:02;;;;;;;10.13;6.45;;;20.50;36.80;;;;;;5035685;28;20048;-75
2020/12/09 08:55:27;;;;;;;4.10;1.55;;;20.50;36.80;;;;;;5056298;28;20553;-72
2020/12/09 08:57:53;;;;;;;1.70;0.98;;;20.50;36.80;;;;;;5034785;28;20025;-75
2020/12/09 09:00:19;;;;;;;4.07;1.88;;;20.50;36.80;;;;;;5056090;28;20025;-74
2020/12/09 09:02:46;;;;;;;1.65;1.05;;;20.50;36.80;;;;;;5029328;28;20416;-76
2020/12/09 09:05:11;;;;;;;2.72;1.83;;;20.60;36.80;;;;;;5037456;28;20508;-74
2020/12/09 09:07:37;;;;;;;2.28;1.27;;;20.60;36.80;;;;;;5047818;28;20056;-74
2020/12/09 09:10:02;;;;;;;1.50;1.13;;;20.60;36.70;;;;;;5049239;28;20025;-73
2020/12/09 09:12:29;;;;;;;2.80;1.33;;;20.60;36.80;;;;;;5049372;28;20024;-74
2020/12/09 09:14:54;;;;;;;2.53;0.90;;;20.60;36.80;;;;;;5037641;28;20024;-74
2020/12/09 09:17:36;;;;;;;2.78;1.17;;;20.60;36.80;;;;;;5055426;28;20032;-74
2020/12/09 09:20:02;;;;;;;3.00;0.85;;;20.60;36.80;;;;;;5038025;28;20029;-75
2020/12/09 09:22:28;;;;;;;2.20;0.90;;;20.60;36.90;;;;;;5055432;28;20045;-75
2020/12/09 09:24:53;;;;;;;2.53;1.38;;;20.60;37.00;;;;;;5054557;28;20400;-75
2020/12/09 09:27:19;;;;;;;2.50;1.52;;;20.60;37.00;;;;;;5042715;28;20028;-75
2020/12/09 09:29:44;;;;;;;1.65;1.00;;;20.60;37.00;;;;;;5044310;28;20053;-75
2020/12/09 09:32:10;;;;;;;1.52;1.20;;;20.60;37.10;;;;;;5036488;28;20083;-75
2020/12/09 09:34:35;;;;;;;1.75;0.98;;;20.50;37.10;;;;;;5042582;28;20032;-74
2020/12/09 09:37:03;;;;;;;1.20;1.00;;;20.50;37.20;;;;;;5027211;28;20509;-74
2020/12/09 09:39:31;;;;;;;6.40;1.17;;;20.50;37.20;;;;;;5037107;28;20029;-74
2020/12/09 09:41:57;;;;;;;1.92;1.10;;;20.50;37.20;;;;;;5003959;28;20049;-74
2020/12/09 09:44:23;;;;;;;2.60;0.90;;;20.50;37.20;;;;;;5018423;28;20022;-74
2020/12/09 09:46:49;;;;;;;1.05;0.88;;;20.50;37.20;;;;;;5015120;28;20025;-74
2020/12/09 09:49:15;;;;;;;3.45;1.40;;;20.50;37.40;;;;;;5020658;28;20405;-74
2020/12/09 09:51:40;;;;;;;1.40;0.75;;;20.50;37.40;;;;;;5024597;28;20021;-74
2020/12/09 09:54:06;;;;;;;1.98;1.00;;;20.50;37.40;;;;;;5044580;28;20029;-74
2020/12/09 09:56:31;;;;;;;1.02;0.80;;;20.50;37.40;;;;;;5020858;28;20025;-74
2020/12/09 09:59:00;;;;;;;0.63;0.55;;;20.50;38.10;;;;;;5057640;28;20028;-74
2020/12/09 10:01:26;;;;;;;3.42;1.20;;;20.50;37.50;;;;;;5026427;28;20021;-74
2020/12/09 10:04:10;;;;;;;1.70;1.00;;;20.50;37.40;;;;;;5021350;28;20055;-74
2020/12/09 10:06:36;;;;;;;0.90;0.70;;;20.60;37.40;;;;;;5036687;28;20044;-73
2020/12/09 10:09:02;;;;;;;3.53;1.05;;;20.50;37.40;;;;;;5035500;28;20029;-74
2020/12/09 10:11:31;;;;;;;1.25;0.85;;;20.50;37.40;;;;;;5011335;28;20520;-74
2020/12/09 10:13:58;;;;;;;2.88;1.40;;;20.50;37.50;;;;;;5040294;28;20067;-73
2020/12/09 10:16:25;;;;;;;1.88;1.05;;;20.60;37.60;;;;;;5041075;28;20029;-73
2020/12/09 10:18:51;;;;;;;1.33;0.82;;;20.60;37.40;;;;;;5005575;28;20059;-74
2020/12/09 10:21:24;;;;;;;0.93;0.63;;;20.70;37.30;;;;;;5023186;28;20033;-74
2020/12/09 10:23:50;;;;;;;1.50;1.17;;;20.70;37.30;;;;;;5043835;28;20037;-74
2020/12/09 10:26:15;;;;;;;2.03;1.55;;;20.70;37.30;;;;;;5047617;28;20076;-73
2020/12/09 10:28:42;;;;;;;4.93;1.02;;;20.80;37.30;;;;;;5021595;28;20021;-73
2020/12/09 10:31:08;;;;;;;2.88;1.00;;;20.80;37.20;;;;;;5028747;28;20124;-72
2020/12/09 10:33:33;;;;;;;2.13;0.98;;;20.80;37.20;;;;;;5036635;28;20467;-73
2020/12/09 10:35:59;;;;;;;1.98;1.20;;;20.80;37.30;;;;;;5038683;28;20025;-76
2020/12/09 10:38:24;;;;;;;4.35;0.85;;;20.80;37.30;;;;;;5036487;28;20029;-75
2020/12/09 10:40:50;;;;;;;1.00;0.75;;;20.80;37.30;;;;;;5046806;28;20074;-75
2020/12/09 10:43:16;;;;;;;0.77;0.77;;;20.80;37.20;;;;;;5025109;28;20009;-75
2020/12/09 10:45:41;;;;;;;1.83;1.05;;;20.80;37.20;;;;;;5048570;28;20492;-75
2020/12/09 10:48:10;;;;;;;2.17;1.35;;;20.80;37.20;;;;;;5051508;28;20204;-75
2020/12/09 10:50:51;;;;;;;2.67;0.85;;;20.80;37.20;;;;;;5014476;28;20484;-75
2020/12/09 10:53:16;;;;;;;1.05;0.77;;;20.80;37.20;;;;;;5015691;28;20040;-76
2020/12/09 10:55:42;;;;;;;1.13;0.82;;;20.90;37.30;;;;;;5029524;28;20096;-78
2020/12/09 10:58:07;;;;;;;2.30;1.02;;;20.80;37.20;;;;;;5051721;28;20032;-77
2020/12/09 11:00:33;;;;;;;1.40;0.80;;;20.90;37.30;;;;;;5020568;28;20101;-74
2020/12/09 11:02:58;;;;;;;6.35;0.90;;;20.80;37.20;;;;;;5034553;28;20022;-74
2020/12/09 11:05:24;;;;;;;1.30;0.98;;;20.90;37.90;;;;;;5038086;28;20025;-74
2020/12/09 11:07:50;;;;;;;1.98;1.10;;;20.90;37.20;;;;;;5032962;28;20522;-73
2020/12/09 11:10:15;;;;;;;1.30;1.20;;;20.90;37.20;;;;;;5044309;28;20025;-74
2020/12/09 11:12:41;;;;;;;3.67;1.00;;;20.90;37.20;;;;;;5039595;28;20036;-73
2020/12/09 11:15:06;;;;;;;0.82;0.70;;;20.90;37.20;;;;;;5042748;28;20033;-73
2020/12/09 11:17:33;;;;;;;2.45;1.00;;;20.80;37.30;;;;;;5050913;28;20025;-71
2020/12/09 11:19:59;;;;;;;1.02;0.80;;;20.80;37.30;;;;;;5053847;28;20021;-71
2020/12/09 11:22:27;;;;;;;1.95;1.00;;;20.80;37.30;;;;;;5052944;28;20107;-77
2020/12/09 11:24:53;;;;;;;1.75;1.17;;;20.80;37.30;;;;;;5007160;28;20505;-76
2020/12/09 11:27:18;;;;;;;1.27;0.60;;;20.80;37.90;;;;;;5053845;28;20036;-77
2020/12/09 11:29:44;;;;;;;2.25;0.80;;;20.80;37.30;;;;;;5033429;28;20090;-74
2020/12/09 11:32:09;;;;;;;1.45;1.00;;;20.80;37.40;;;;;;5040806;28;20033;-74
2020/12/09 11:34:35;;;;;;;1.23;0.80;;;20.90;37.40;;;;;;5045116;28;20036;-73
2020/12/09 11:37:02;;;;;;;0.47;0.43;;;20.90;37.40;;;;;;5052086;28;20043;-72
2020/12/09 11:39:28;;;;;;;0.43;0.43;;;20.90;37.30;;;;;;5037240;28;20116;-72
2020/12/09 11:41:57;;;;;;;0.95;0.60;;;21.00;37.20;;;;;;5051599;28;20109;-72
2020/12/09 11:44:22;;;;;;;0.93;0.60;;;21.10;37.10;;;;;;5027029;28;20115;-73
2020/12/09 11:46:48;;;;;;;1.77;0.60;;;21.10;37.00;;;;;;5032349;28;20096;-73
2020/12/09 11:49:14;;;;;;;1.55;0.90;;;21.20;36.80;;;;;;5050332;28;20082;-73
2020/12/09 11:51:39;;;;;;;1.10;0.82;;;21.30;36.80;;;;;;5039711;28;20026;-72
2020/12/09 11:54:05;;;;;;;1.95;1.10;;;21.30;36.60;;;;;;5049255;28;20035;-72
2020/12/09 11:56:30;;;;;;;0.70;0.52;;;21.40;36.60;;;;;;5023070;28;20143;-73
2020/12/09 11:58:56;;;;;;;1.20;0.82;;;21.50;36.50;;;;;;5015074;28;20026;-72
2020/12/09 12:01:22;;;;;;;0.60;0.45;;;21.50;36.30;;;;;;5046597;28;20017;-74
2020/12/09 12:03:48;;;;;;;0.80;0.80;;;21.60;36.90;;;;;;5034539;28;20021;-72
2020/12/09 12:06:19;;;;;;;1.00;0.65;;;21.60;36.20;;;;;;5045874;28;20093;-72
2020/12/09 12:08:45;;;;;;;0.90;0.57;;;21.60;36.10;;;;;;5019747;28;20507;-72
2020/12/09 12:11:15;;;;;;;0.60;0.60;;;21.70;36.10;;;;;;5019334;28;20029;-73
2020/12/09 12:13:40;;;;;;;0.77;0.47;;;21.70;36.10;;;;;;5041273;28;20033;-71
2020/12/09 12:16:06;;;;;;;0.80;0.70;;;21.70;36.00;;;;;;5061197;28;20032;-73
2020/12/09 12:18:31;;;;;;;0.95;0.70;;;21.70;36.00;;;;;;5032592;28;20029;-72
2020/12/09 12:20:57;;;;;;;1.20;0.80;;;21.70;35.90;;;;;;5022576;28;20036;-72
2020/12/09 12:23:22;;;;;;;1.08;0.70;;;21.70;36.00;;;;;;5024471;28;20037;-74
2020/12/09 12:25:48;;;;;;;0.98;0.60;;;21.70;36.00;;;;;;5032682;28;20519;-74
2020/12/09 12:28:14;;;;;;;1.05;0.57;;;21.70;36.10;;;;;;5048670;28;20032;-74
2020/12/09 12:30:39;;;;;;;1.25;0.57;;;21.70;36.10;;;;;;5025986;28;20032;-75
2020/12/09 12:33:05;;;;;;;1.17;0.80;;;21.70;36.10;;;;;;5039523;28;20025;-75
2020/12/09 12:35:30;;;;;;;1.20;0.68;;;21.60;36.10;;;;;;5034291;28;20567;-75
2020/12/09 12:37:56;;;;;;;1.40;0.50;;;21.60;36.20;;;;;;5063608;28;20029;-75
2020/12/09 12:40:21;;;;;;;1.27;0.85;;;21.60;36.20;;;;;;5047404;28;20024;-75
2020/12/09 12:42:47;;;;;;;0.70;0.70;;;21.60;36.20;;;;;;5072937;28;20029;-75
2020/12/09 12:45:12;;;;;;;1.90;0.85;;;21.60;36.30;;;;;;5062615;28;20127;-74
2020/12/09 12:47:38;;;;;;;1.90;0.50;;;21.60;36.30;;;;;;5036998;28;20067;-72
2020/12/09 12:50:03;;;;;;;0.75;0.50;;;21.60;36.30;;;;;;5059196;28;20021;-71
2020/12/09 12:52:29;;;;;;;1.92;0.93;;;21.60;36.30;;;;;;5070408;28;20046;-72
2020/12/09 12:54:54;;;;;;;1.05;0.52;;;21.60;36.30;;;;;;5058185;28;20083;-71
2020/12/09 12:57:20;;;;;;;2.85;0.63;;;21.60;36.30;;;;;;5062079;28;20419;-71